MMAA/ACA METAR and TAF weather

Enter ICAO airport designator
Station Type Date Time Source
MMAA METAR 2019/08/20 09:41 UTC NOAA

MMAA 200941Z E05003KT 5SM SCT015CB BKN090 OVC300 27/24 A2986 RMK 8/363 HZY


Station Type Date Time Source
MMAA Decoded METAR 2019/08/20 09:41 UTC NOAA

Acapulco / G. Alvarez, Mexico (MMAA) 16-46N 099-45W
Aug 20, 2019 - 05:41 AM EDT / 2019.08.20 0941 UTC
Visibility: 5 mile(s):0
Sky conditions: overcast
Weather: Cumulonimbus clouds observed
Temperature: 80 F (27 C)
Dew Point: 75 F (24 C)
Relative Humidity: 83%
Pressure (altimeter): 29.86 in. Hg (1011 hPa)
ob: MMAA 200941Z E05003KT 5SM SCT015CB BKN090 OVC300 27/24 A2986 RMK 8/363 HZY
cycle: 9

Station Type Date Time Source
MMAA TAF 2019/08/20 12:07 UTC NOAA

TAF MMAA 201000Z 2012/2118 05004KT 5SM HZ SCT015CB BKN090 OVC300 TX31/2020Z TN26/2012Z
TEMPO 2012/2015 4SM TSRA
FM201800 13010KT P6SM SCT025 SCT090 BKN250 PROB40 2023/2103 4SM TSRA BKN025CB OVC090
FM210700 16006KT P6SM SCT090 BKN250
BECMG 2110/2112 00000KT

Example: see airport list